Time;durP1;ratioP1;P1;durP2;ratioP2;P2;SDS_P1;SDS_P2;PMS_P1;PMS_P2;Temp;Humidity;BMP_temperature;BMP_pressure;BME280_temperature;BME280_humidity;BME280_pressure;Samples;Min_cycle;Max_cycle;Signal;HPM_P1;HPM_P2
2023/01/09 00:00:11;;;;;;;;;;;7.30;99.90;;;;;;4965716;28;206739;-72
2023/01/09 00:02:39;;;;;;;;;;;7.40;99.90;;;;;;5028469;28;19936;-72
2023/01/09 00:05:12;;;;;;;;;;;7.50;99.90;;;;;;4932546;28;195851;-70
2023/01/09 00:07:38;;;;;;;;;;;7.50;99.90;;;;;;4999951;28;19935;-70
2023/01/09 00:10:05;;;;;;;;;;;7.50;99.90;;;;;;4959025;28;207496;-72
2023/01/09 00:12:32;;;;;;;;;;;7.50;99.90;;;;;;5010258;28;21576;-71
2023/01/09 00:14:58;;;;;;;;;;;7.60;99.90;;;;;;4966109;28;112123;-71
2023/01/09 00:17:24;;;;;;;;;;;7.60;99.90;;;;;;5019793;28;19937;-71
2023/01/09 00:19:50;;;;;;;;;;;7.60;99.90;;;;;;4979191;28;209834;-72
2023/01/09 00:22:16;;;;;;;;;;;7.60;99.90;;;;;;5026807;28;20079;-72
2023/01/09 00:24:42;;;;;;;;;;;7.60;99.90;;;;;;4977236;28;212960;-71
2023/01/09 00:27:08;;;;;;;;;;;7.30;99.90;;;;;;5021314;28;19936;-73
2023/01/09 00:29:34;;;;;;;;;;;7.00;99.90;;;;;;4959467;28;237038;-72
2023/01/09 00:32:00;;;;;;;;;;;6.70;99.90;;;;;;5022742;28;19987;-73
2023/01/09 00:34:26;;;;;;;;;;;6.60;99.90;;;;;;4976334;28;210715;-74
2023/01/09 00:36:54;;;;;;;;;;;6.40;99.90;;;;;;5025485;28;19929;-74
2023/01/09 00:39:20;;;;;;;;;;;6.30;99.90;;;;;;4975332;28;217333;-72
2023/01/09 00:41:49;;;;;;;;;;;6.30;99.90;;;;;;4999493;28;19929;-71
2023/01/09 00:44:17;;;;;;;;;;;6.30;99.90;;;;;;4973539;28;206169;-73
2023/01/09 00:46:47;;;;;;;;;;;6.30;99.90;;;;;;5007012;28;19969;-72
2023/01/09 00:49:13;;;;;;;;;;;6.40;99.90;;;;;;4965668;28;206584;-72
2023/01/09 00:51:40;;;;;;;;;;;6.40;99.90;;;;;;5002970;28;20469;-71
2023/01/09 00:54:06;;;;;;;;;;;6.50;99.90;;;;;;4967782;28;207530;-72
2023/01/09 00:56:33;;;;;;;;;;;6.60;99.90;;;;;;5002043;28;20784;-72
2023/01/09 00:58:59;;;;;;;;;;;6.60;99.90;;;;;;4985879;28;207760;-72
2023/01/09 01:01:25;;;;;;;;;;;6.70;99.90;;;;;;4980351;28;21181;-73
2023/01/09 01:03:51;;;;;;;;;;;6.70;99.90;;;;;;4993012;28;207884;-72
2023/01/09 01:09:02;;;;;;;;;;;6.80;99.90;;;;;;4978223;28;206481;-71
2023/01/09 01:11:30;;;;;;;;;;;6.90;99.90;;;;;;5027325;28;19921;-72
2023/01/09 01:13:56;;;;;;;;;;;6.90;99.90;;;;;;5003144;28;209950;-71
2023/01/09 01:16:22;;;;;;;;;;;7.00;99.90;;;;;;4959060;28;19932;-70
2023/01/09 01:18:48;;;;;;;;;;;6.90;99.90;;;;;;5035704;28;20305;-71
2023/01/09 01:21:14;;;;;;;;;;;7.00;99.90;;;;;;4970113;28;209871;-72
2023/01/09 01:23:40;;;;;;;;;;;6.90;99.90;;;;;;5034933;28;19940;-71
2023/01/09 01:26:08;;;;;;;;;;;6.90;99.90;;;;;;4965936;28;175633;-72
2023/01/09 01:28:34;;;;;;;;;;;6.90;99.90;;;;;;5041683;28;19924;-71
2023/01/09 01:31:00;;;;;;;;;;;6.90;99.90;;;;;;4960716;28;243620;-72
2023/01/09 01:33:26;;;;;;;;;;;6.90;99.90;;;;;;5037813;28;19929;-71
2023/01/09 01:35:59;;;;;;;;;;;6.90;99.90;;;;;;4962796;28;210692;-71
2023/01/09 01:38:25;;;;;;;;;;;6.90;99.90;;;;;;5018442;28;19930;-71
2023/01/09 01:40:52;;;;;;;;;;;6.90;99.90;;;;;;4957568;28;215321;-71
2023/01/09 01:43:18;;;;;;;;;;;6.90;99.90;;;;;;5030198;28;20511;-71
2023/01/09 01:45:44;;;;;;;;;;;6.90;99.90;;;;;;4969012;28;218474;-71
2023/01/09 01:48:11;;;;;;;;;;;6.90;99.90;;;;;;5034419;28;19931;-69
2023/01/09 01:50:37;;;;;;;;;;;6.90;99.90;;;;;;4952622;28;209572;-70
2023/01/09 01:53:06;;;;;;;;;;;6.90;99.90;;;;;;5043166;28;19928;-71
2023/01/09 01:55:33;;;;;;;;;;;6.90;99.90;;;;;;4972372;28;247051;-72
2023/01/09 01:58:01;;;;;;;;;;;6.90;99.90;;;;;;5038772;28;19921;-71
2023/01/09 02:00:32;;;;;;;;;;;6.90;99.90;;;;;;4975223;28;227820;-71
2023/01/09 02:02:59;;;;;;;;;;;6.80;99.90;;;;;;5035893;28;19929;-71
2023/01/09 02:05:25;;;;;;;;;;;6.80;99.90;;;;;;4963957;28;37974;-71
2023/01/09 02:07:51;;;;;;;;;;;6.80;99.90;;;;;;5027282;28;20039;-69
2023/01/09 02:10:18;;;;;;;;;;;6.70;99.90;;;;;;4947829;28;247978;-70
2023/01/09 02:12:43;;;;;;;;;;;6.70;99.90;;;;;;5021080;28;20020;-70
2023/01/09 02:15:12;;;;;;;;;;;6.70;99.90;;;;;;4977396;28;209061;-71
2023/01/09 02:17:41;;;;;;;;;;;6.70;99.90;;;;;;5014359;28;19940;-70
2023/01/09 02:20:19;;;;;;;;;;;6.60;99.90;;;;;;4968923;28;208121;-70
2023/01/09 02:22:47;;;;;;;;;;;6.60;99.90;;;;;;5026107;28;19933;-70
2023/01/09 02:25:26;;;;;;;;;;;6.60;99.90;;;;;;4945576;28;210103;-70
2023/01/09 02:27:51;;;;;;;;;;;6.60;99.90;;;;;;5017440;28;19929;-70
2023/01/09 02:30:20;;;;;;;;;;;6.50;99.90;;;;;;4968195;28;210329;-71
2023/01/09 02:32:57;;;;;;;;;;;6.50;99.90;;;;;;5010824;28;20007;-69
2023/01/09 02:35:30;;;;;;;;;;;6.50;99.90;;;;;;4979595;28;209228;-69
2023/01/09 02:38:05;;;;;;;;;;;6.50;99.90;;;;;;5036336;28;19928;-70
2023/01/09 02:40:49;;;;;;;;;;;6.50;99.90;;;;;;4959870;28;228935;-69
2023/01/09 02:43:14;;;;;;;;;;;6.50;99.90;;;;;;5028322;28;19973;-69
2023/01/09 02:45:40;;;;;;;;;;;6.40;99.90;;;;;;4969704;28;207279;-69
2023/01/09 02:48:09;;;;;;;;;;;6.30;99.90;;;;;;4996246;28;19933;-70
2023/01/09 02:50:59;;;;;;;;;;;6.30;99.90;;;;;;4980220;28;206596;-69
2023/01/09 02:53:43;;;;;;;;;;;6.30;99.90;;;;;;5024250;28;20408;-69
2023/01/09 02:56:26;;;;;;;;;;;6.30;99.90;;;;;;4973798;28;206419;-69
2023/01/09 02:58:58;;;;;;;;;;;6.30;99.90;;;;;;5020446;28;206834;-69
2023/01/09 03:01:46;;;;;;;;;;;6.20;99.90;;;;;;4963765;28;174519;-70
2023/01/09 03:04:20;;;;;;;;;;;6.20;99.90;;;;;;4960314;28;210417;-70
2023/01/09 03:06:50;;;;;;;;;;;6.10;99.90;;;;;;5011905;28;19929;-70
2023/01/09 03:09:19;;;;;;;;;;;6.10;99.90;;;;;;4974830;28;222610;-68
2023/01/09 03:11:46;;;;;;;;;;;6.10;99.90;;;;;;5025396;28;19931;-68
2023/01/09 03:14:14;;;;;;;;;;;6.10;99.90;;;;;;4970933;28;211311;-69
2023/01/09 03:16:43;;;;;;;;;;;6.00;99.90;;;;;;5013415;28;20422;-68
2023/01/09 03:19:11;;;;;;;;;;;6.00;99.90;;;;;;4983289;28;205975;-68
2023/01/09 03:21:37;;;;;;;;;;;6.00;99.90;;;;;;5016885;28;19929;-68
2023/01/09 03:24:04;;;;;;;;;;;6.00;99.90;;;;;;4976226;28;206869;-69
2023/01/09 03:26:30;;;;;;;;;;;5.90;99.90;;;;;;4995522;28;20406;-69
2023/01/09 03:28:56;;;;;;;;;;;5.90;99.90;;;;;;5011429;28;207257;-69
2023/01/09 03:31:23;;;;;;;;;;;5.90;99.90;;;;;;4970510;28;85040;-70
2023/01/09 03:33:49;;;;;;;;;;;5.80;99.90;;;;;;5031676;28;19931;-69
2023/01/09 03:36:16;;;;;;;;;;;5.80;99.90;;;;;;4950681;28;206804;-68
2023/01/09 03:38:42;;;;;;;;;;;5.80;99.90;;;;;;5033489;28;19924;-70
2023/01/09 03:41:08;;;;;;;;;;;5.80;99.90;;;;;;4976256;28;206406;-70
2023/01/09 03:43:34;;;;;;;;;;;5.70;99.90;;;;;;5020123;28;19929;-69
2023/01/09 03:46:00;;;;;;;;;;;5.70;99.90;;;;;;4934329;28;206457;-69
2023/01/09 03:48:26;;;;;;;;;;;5.70;99.90;;;;;;5020450;28;19925;-69
2023/01/09 03:50:53;;;;;;;;;;;5.70;99.90;;;;;;4957999;28;206033;-70
2023/01/09 03:53:20;;;;;;;;;;;5.70;99.90;;;;;;5011825;28;20402;-70
2023/01/09 03:55:47;;;;;;;;;;;5.60;99.90;;;;;;4961725;28;207778;-68
2023/01/09 03:58:14;;;;;;;;;;;5.60;99.90;;;;;;5028157;28;19931;-69
2023/01/09 04:00:39;;;;;;;;;;;5.60;99.90;;;;;;4955330;28;207844;-70
2023/01/09 04:03:06;;;;;;;;;;;5.60;99.90;;;;;;5019700;28;19936;-69
2023/01/09 04:05:32;;;;;;;;;;;5.60;99.90;;;;;;4951461;28;171763;-68
2023/01/09 04:07:58;;;;;;;;;;;5.60;99.90;;;;;;5019919;28;19929;-67
2023/01/09 04:10:24;;;;;;;;;;;5.50;99.90;;;;;;4955104;28;208870;-69
2023/01/09 04:12:50;;;;;;;;;;;5.50;99.90;;;;;;5022780;28;19932;-69
2023/01/09 04:15:16;;;;;;;;;;;5.40;99.90;;;;;;4969289;28;208556;-69
2023/01/09 04:17:42;;;;;;;;;;;5.40;99.90;;;;;;5004026;28;19990;-68
2023/01/09 04:20:08;;;;;;;;;;;5.40;99.90;;;;;;4942037;28;197292;-67
2023/01/09 04:22:34;;;;;;;;;;;5.40;99.90;;;;;;5018345;28;20297;-68
2023/01/09 04:25:00;;;;;;;;;;;5.40;99.90;;;;;;4961814;28;228324;-69
2023/01/09 04:27:26;;;;;;;;;;;5.40;99.90;;;;;;5018906;28;20414;-69
2023/01/09 04:29:52;;;;;;;;;;;5.30;99.90;;;;;;4975656;28;211666;-69
2023/01/09 04:32:18;;;;;;;;;;;5.30;99.90;;;;;;5025216;28;19929;-67
2023/01/09 04:34:44;;;;;;;;;;;5.30;99.90;;;;;;4965574;28;223770;-68
2023/01/09 04:37:10;;;;;;;;;;;5.30;99.90;;;;;;5002884;28;19929;-69
2023/01/09 04:39:36;;;;;;;;;;;5.20;99.90;;;;;;4960460;28;213582;-68
2023/01/09 04:42:02;;;;;;;;;;;5.30;99.90;;;;;;5003328;28;20309;-68
2023/01/09 04:44:28;;;;;;;;;;;5.20;99.90;;;;;;4973541;28;233366;-69
2023/01/09 04:46:55;;;;;;;;;;;5.30;99.90;;;;;;5003637;28;19925;-69
2023/01/09 04:49:21;;;;;;;;;;;5.30;99.90;;;;;;4965029;28;261350;-69
2023/01/09 04:51:48;;;;;;;;;;;5.30;99.90;;;;;;5019321;28;19928;-69
2023/01/09 04:54:14;;;;;;;;;;;5.20;99.90;;;;;;4982686;28;206824;-67
2023/01/09 04:56:40;;;;;;;;;;;5.30;99.90;;;;;;4989819;28;19927;-67
2023/01/09 04:59:06;;;;;;;;;;;5.30;99.90;;;;;;4982525;28;206923;-68
2023/01/09 05:01:32;;;;;;;;;;;5.30;99.90;;;;;;5020423;28;20400;-69
2023/01/09 05:03:58;;;;;;;;;;;5.30;99.90;;;;;;5003451;28;276779;-69
2023/01/09 05:06:24;;;;;;;;;;;5.40;99.90;;;;;;4962986;28;20129;-67
2023/01/09 05:08:50;;;;;;;;;;;5.40;99.90;;;;;;5032785;28;19927;-69
2023/01/09 05:11:16;;;;;;;;;;;5.40;99.90;;;;;;4944016;28;107033;-69
2023/01/09 05:13:42;;;;;;;;;;;5.40;99.90;;;;;;5032062;28;19925;-68
2023/01/09 05:16:08;;;;;;;;;;;5.50;99.90;;;;;;4940971;28;153612;-69
2023/01/09 05:18:34;;;;;;;;;;;5.50;99.90;;;;;;5028468;28;20031;-68
2023/01/09 05:21:00;;;;;;;;;;;5.50;99.90;;;;;;4955759;28;206231;-69
2023/01/09 05:23:26;;;;;;;;;;;5.50;99.90;;;;;;5002859;28;19929;-69
2023/01/09 05:25:52;;;;;;;;;;;5.40;99.90;;;;;;4950359;28;207521;-68
2023/01/09 05:28:18;;;;;;;;;;;5.40;99.90;;;;;;5031724;28;19929;-68
2023/01/09 05:30:45;;;;;;;;;;;5.40;99.90;;;;;;4954667;28;222779;-69
2023/01/09 05:33:11;;;;;;;;;;;5.40;99.90;;;;;;5029332;28;19940;-69
2023/01/09 05:35:37;;;;;;;;;;;5.50;99.90;;;;;;4951527;28;209820;-69
2023/01/09 05:38:03;;;;;;;;;;;5.50;99.90;;;;;;5019064;28;20250;-68
2023/01/09 05:40:29;;;;;;;;;;;5.50;99.90;;;;;;4962410;28;209646;-68
2023/01/09 05:42:55;;;;;;;;;;;5.50;99.90;;;;;;5008176;28;19936;-68
2023/01/09 05:45:21;;;;;;;;;;;5.60;99.90;;;;;;4952223;28;209248;-68
2023/01/09 05:47:46;;;;;;;;;;;5.60;99.90;;;;;;5026465;28;19939;-67
2023/01/09 05:50:13;;;;;;;;;;;5.60;99.90;;;;;;4969238;28;213369;-69
2023/01/09 05:52:39;;;;;;;;;;;5.60;99.90;;;;;;5006239;28;19929;-69
2023/01/09 05:55:05;;;;;;;;;;;5.60;99.90;;;;;;4974682;28;208374;-69
2023/01/09 05:57:31;;;;;;;;;;;5.60;99.90;;;;;;5027156;28;19925;-68
2023/01/09 05:59:57;;;;;;;;;;;5.60;99.90;;;;;;4964570;28;206881;-68
2023/01/09 06:02:23;;;;;;;;;;;5.50;99.90;;;;;;5020183;28;20359;-68
2023/01/09 06:04:49;;;;;;;;;;;5.60;99.90;;;;;;4966780;28;207192;-67
2023/01/09 06:07:15;;;;;;;;;;;5.60;99.90;;;;;;5025250;28;19932;-69
2023/01/09 06:09:41;;;;;;;;;;;5.60;99.90;;;;;;4976547;28;207585;-67
2023/01/09 06:12:07;;;;;;;;;;;5.60;99.90;;;;;;5017084;28;19924;-68
2023/01/09 06:14:33;;;;;;;;;;;5.60;99.90;;;;;;4975185;28;213916;-68
2023/01/09 06:16:58;;;;;;;;;;;5.50;99.90;;;;;;5026192;28;20552;-68
2023/01/09 06:19:24;;;;;;;;;;;5.50;99.90;;;;;;4960154;28;206851;-68
2023/01/09 06:21:52;;;;;;;;;;;5.50;99.90;;;;;;5029941;28;19931;-69
2023/01/09 06:24:18;;;;;;;;;;;5.50;99.90;;;;;;4968723;28;209122;-69
2023/01/09 06:26:44;;;;;;;;;;;5.50;99.90;;;;;;4982598;28;19924;-69
2023/01/09 06:29:10;;;;;;;;;;;5.50;99.90;;;;;;4977446;28;212006;-68
2023/01/09 06:31:36;;;;;;;;;;;5.50;99.90;;;;;;5002581;28;20302;-68
2023/01/09 06:34:02;;;;;;;;;;;5.50;99.90;;;;;;4982560;28;207790;-67
2023/01/09 06:36:27;;;;;;;;;;;5.40;99.90;;;;;;5015910;28;19935;-66
2023/01/09 06:38:53;;;;;;;;;;;5.50;99.90;;;;;;5027009;28;214686;-68
2023/01/09 06:41:19;;;;;;;;;;;5.50;99.90;;;;;;4962470;28;206752;-68
2023/01/09 06:43:45;;;;;;;;;;;5.50;99.90;;;;;;5047341;28;19925;-68
2023/01/09 06:46:11;;;;;;;;;;;5.40;99.90;;;;;;4968078;28;211153;-68
2023/01/09 06:48:37;;;;;;;;;;;5.40;99.90;;;;;;5045186;28;19928;-68
2023/01/09 06:51:05;;;;;;;;;;;5.50;99.90;;;;;;4977495;28;211270;-68
2023/01/09 06:53:31;;;;;;;;;;;5.50;99.90;;;;;;5061867;28;19913;-67
2023/01/09 06:55:57;;;;;;;;;;;5.50;99.90;;;;;;4989685;28;201387;-67
2023/01/09 06:58:23;;;;;;;;;;;5.50;99.90;;;;;;5043208;28;20401;-69
2023/01/09 07:00:49;;;;;;;;;;;5.40;99.90;;;;;;4980100;28;209412;-69
2023/01/09 07:03:20;;;;;;;;;;;5.40;99.90;;;;;;5041632;28;19929;-69
2023/01/09 07:05:46;;;;;;;;;;;5.30;99.90;;;;;;4962785;28;205404;-69
2023/01/09 07:08:13;;;;;;;;;;;5.20;99.90;;;;;;5011678;28;19925;-69
2023/01/09 07:10:40;;;;;;;;;;;5.20;99.90;;;;;;4964107;28;207774;-69
2023/01/09 07:13:06;;;;;;;;;;;5.20;99.90;;;;;;5009114;28;19996;-69
2023/01/09 07:15:31;;;;;;;;;;;5.20;99.90;;;;;;4967612;28;157203;-68
2023/01/09 07:17:58;;;;;;;;;;;5.10;99.90;;;;;;5033832;28;19920;-68
2023/01/09 07:20:24;;;;;;;;;;;5.10;99.90;;;;;;4997743;28;219918;-69
2023/01/09 07:22:50;;;;;;;;;;;5.10;99.90;;;;;;5047082;28;19992;-68
2023/01/09 07:25:16;;;;;;;;;;;5.10;99.90;;;;;;4975372;28;50324;-68
2023/01/09 07:27:42;;;;;;;;;;;5.10;99.90;;;;;;5039247;28;19920;-69
2023/01/09 07:30:08;;;;;;;;;;;5.00;99.90;;;;;;4991321;28;208027;-69
2023/01/09 07:32:34;;;;;;;;;;;5.00;99.90;;;;;;5038117;28;19921;-69
2023/01/09 07:35:00;;;;;;;;;;;5.00;99.90;;;;;;4981211;28;210306;-69
2023/01/09 07:37:26;;;;;;;;;;;5.00;99.90;;;;;;5016724;28;19921;-70
2023/01/09 07:39:52;;;;;;;;;;;5.00;99.90;;;;;;4975663;28;207066;-70
2023/01/09 07:42:17;;;;;;;;;;;4.90;99.90;;;;;;5028485;28;19924;-70
2023/01/09 07:44:43;;;;;;;;;;;5.00;99.90;;;;;;4970854;28;256187;-69
2023/01/09 07:47:09;;;;;;;;;;;5.00;99.90;;;;;;5025125;28;20348;-69
2023/01/09 07:49:35;;;;;;;;;;;5.00;99.90;;;;;;4969372;28;191993;-69
2023/01/09 07:52:01;;;;;;;;;;;5.00;99.90;;;;;;5025041;28;19959;-68
2023/01/09 07:54:27;;;;;;;;;;;5.10;99.90;;;;;;4978892;28;216651;-68
2023/01/09 07:56:53;;;;;;;;;;;5.10;99.90;;;;;;4997801;28;19932;-69
2023/01/09 07:59:19;;;;;;;;;;;5.10;99.90;;;;;;4973618;28;253744;-69
2023/01/09 08:01:45;;;;;;;;;;;5.20;99.90;;;;;;5033762;28;19929;-70
2023/01/09 08:04:11;;;;;;;;;;;5.20;99.90;;;;;;4971952;28;241866;-69
2023/01/09 08:06:37;;;;;;;;;;;5.20;99.90;;;;;;5020761;28;20427;-68
2023/01/09 08:09:03;;;;;;;;;;;5.30;99.90;;;;;;4973666;28;203633;-69
2023/01/09 08:11:29;;;;;;;;;;;5.30;99.90;;;;;;5019578;28;20476;-68
2023/01/09 08:13:55;;;;;;;;;;;5.40;99.90;;;;;;5024120;28;211144;-68
2023/01/09 08:16:20;;;;;;;;;;;5.40;99.90;;;;;;4968717;28;132262;-69
2023/01/09 08:18:46;;;;;;;;;;;5.40;99.90;;;;;;5040375;28;19928;-69
2023/01/09 08:21:13;;;;;;;;;;;5.40;99.90;;;;;;4979603;28;185966;-69
2023/01/09 08:23:39;;;;;;;;;;;5.40;99.90;;;;;;5037932;28;20386;-70
2023/01/09 08:26:05;;;;;;;;;;;5.40;99.90;;;;;;4966668;28;208879;-69
2023/01/09 08:28:31;;;;;;;;;;;5.50;99.90;;;;;;5035765;28;19921;-69
2023/01/09 08:30:57;;;;;;;;;;;5.50;99.90;;;;;;4974954;28;208082;-70
2023/01/09 08:33:23;;;;;;;;;;;5.60;99.90;;;;;;5037673;28;19964;-70
2023/01/09 08:35:49;;;;;;;;;;;5.60;99.90;;;;;;4977840;28;207834;-69
2023/01/09 08:38:15;;;;;;;;;;;5.60;99.90;;;;;;5036074;28;19924;-70
2023/01/09 08:40:41;;;;;;;;;;;5.60;99.90;;;;;;4977794;28;214576;-70
2023/01/09 08:48:36;;;;;;;;;;;5.60;99.90;;;;;;5018367;28;19921;-68
2023/01/09 08:51:02;;;;;;;;;;;5.70;99.90;;;;;;4957288;28;257057;-69
2023/01/09 08:53:30;;;;;;;;;;;5.70;99.90;;;;;;5023295;28;19935;-70
2023/01/09 08:55:56;;;;;;;;;;;5.70;99.90;;;;;;4951474;28;207860;-70
2023/01/09 08:58:22;;;;;;;;;;;5.70;99.90;;;;;;5041467;28;19971;-70
2023/01/09 09:00:47;;;;;;;;;;;5.80;99.90;;;;;;4976945;28;207449;-70
2023/01/09 09:03:13;;;;;;;;;;;5.80;99.90;;;;;;5039924;28;20732;-70
2023/01/09 09:05:39;;;;;;;;;;;5.80;99.90;;;;;;4958896;28;207313;-69
2023/01/09 09:08:05;;;;;;;;;;;5.80;99.90;;;;;;5034822;28;19929;-70
2023/01/09 09:10:31;;;;;;;;;;;5.80;99.90;;;;;;4965646;28;207308;-70
2023/01/09 09:12:58;;;;;;;;;;;5.90;99.90;;;;;;5037691;28;19921;-69
2023/01/09 09:15:25;;;;;;;;;;;5.90;99.90;;;;;;4970518;28;206116;-70
2023/01/09 09:18:04;;;;;;;;;;;6.00;99.90;;;;;;5036627;28;19999;-69
2023/01/09 09:20:31;;;;;;;;;;;6.00;99.90;;;;;;4976653;28;207658;-68
2023/01/09 09:22:57;;;;;;;;;;;6.00;99.90;;;;;;5038803;28;19931;-70
2023/01/09 09:25:23;;;;;;;;;;;6.10;99.90;;;;;;4982726;28;211372;-70
2023/01/09 09:27:50;;;;;;;;;;;6.20;99.90;;;;;;5037834;28;19929;-70
2023/01/09 09:30:17;;;;;;;;;;;6.20;99.90;;;;;;4973633;28;206490;-68
2023/01/09 09:32:42;;;;;;;;;;;6.20;99.90;;;;;;5058435;28;20560;-68
2023/01/09 09:35:09;;;;;;;;;;;6.30;99.90;;;;;;5001781;28;207131;-69
2023/01/09 09:37:35;;;;;;;;;;;6.30;99.90;;;;;;5010424;28;20313;-70
2023/01/09 09:40:01;;;;;;;;;;;6.30;99.90;;;;;;4962328;28;212735;-69
2023/01/09 09:45:50;;;;;;;;;;;6.30;99.90;;;;;;4935656;28;178159;-70
2023/01/09 09:48:32;;;;;;;;;;;6.40;99.90;;;;;;5016980;28;19925;-70
2023/01/09 09:51:16;;;;;;;;;;;6.40;99.90;;;;;;4946154;28;206920;-70
2023/01/09 09:53:48;;;;;;;;;;;6.40;99.90;;;;;;5022217;28;19925;-69
2023/01/09 09:56:16;;;;;;;;;;;6.50;99.90;;;;;;4957890;28;107622;-70
2023/01/09 09:59:04;;;;;;;;;;;6.60;99.90;;;;;;5031136;28;19932;-70
2023/01/09 10:01:39;;;;;;;;;;;6.50;99.90;;;;;;4931219;28;205554;-67
2023/01/09 10:04:09;;;;;;;;;;;6.50;99.90;;;;;;4966991;28;212630;-69
2023/01/09 10:06:41;;;;;;;;;;;6.60;99.90;;;;;;5000950;28;20568;-70
2023/01/09 10:09:25;;;;;;;;;;;6.60;99.90;;;;;;4969508;28;207669;-69
2023/01/09 10:12:00;;;;;;;;;;;6.60;99.90;;;;;;5013170;28;19940;-69
2023/01/09 10:14:26;;;;;;;;;;;6.60;99.90;;;;;;4988417;28;207493;-69
2023/01/09 10:16:58;;;;;;;;;;;6.60;99.90;;;;;;5029314;28;19929;-69
2023/01/09 10:19:39;;;;;;;;;;;6.60;99.90;;;;;;4987160;28;215623;-70
2023/01/09 10:22:23;;;;;;;;;;;6.60;99.90;;;;;;5030909;28;19925;-69
2023/01/09 10:25:00;;;;;;;;;;;6.60;99.90;;;;;;4970828;28;207168;-69
2023/01/09 10:27:26;;;;;;;;;;;6.60;99.90;;;;;;5019347;28;19925;-68
2023/01/09 10:29:55;;;;;;;;;;;6.60;99.90;;;;;;4974777;28;219675;-68
2023/01/09 10:32:40;;;;;;;;;;;6.60;99.90;;;;;;5030891;28;20669;-70
2023/01/09 10:35:24;;;;;;;;;;;6.70;99.90;;;;;;4978049;28;215956;-69
2023/01/09 10:37:52;;;;;;;;;;;6.70;99.90;;;;;;5033511;28;19939;-69
2023/01/09 10:40:21;;;;;;;;;;;6.70;99.90;;;;;;4978555;28;206251;-69
2023/01/09 10:42:56;;;;;;;;;;;6.70;99.90;;;;;;5033222;28;19947;-69
2023/01/09 10:45:28;;;;;;;;;;;6.70;99.90;;;;;;4971753;28;215334;-68
2023/01/09 10:48:09;;;;;;;;;;;6.80;99.90;;;;;;5050585;28;19921;-69
2023/01/09 10:50:37;;;;;;;;;;;6.80;99.90;;;;;;4978601;28;216867;-68
2023/01/09 10:53:18;;;;;;;;;;;6.80;99.90;;;;;;5051705;28;19932;-69
2023/01/09 10:55:48;;;;;;;;;;;6.80;99.90;;;;;;4966674;28;249413;-69
2023/01/09 10:58:19;;;;;;;;;;;6.80;99.90;;;;;;5019832;28;19925;-68
2023/01/09 11:00:45;;;;;;;;;;;6.90;99.90;;;;;;4967281;28;238029;-69
2023/01/09 11:03:15;;;;;;;;;;;6.80;99.90;;;;;;5038459;28;19924;-68
2023/01/09 11:05:42;;;;;;;;;;;6.90;99.90;;;;;;4970301;28;207042;-68
2023/01/09 11:08:07;;;;;;;;;;;6.80;99.90;;;;;;5037742;28;19924;-69
2023/01/09 11:10:50;;;;;;;;;;;6.90;99.90;;;;;;4973172;28;210511;-69
2023/01/09 11:13:20;;;;;;;;;;;6.90;99.90;;;;;;5018535;28;20322;-69
2023/01/09 11:16:03;;;;;;;;;;;6.90;99.90;;;;;;4971361;28;207692;-69
2023/01/09 11:18:29;;;;;;;;;;;6.90;99.90;;;;;;5037371;28;19951;-68
2023/01/09 11:20:55;;;;;;;;;;;6.90;99.90;;;;;;4953772;28;168296;-71
2023/01/09 11:23:26;;;;;;;;;;;7.00;99.90;;;;;;5040743;28;19925;-69
2023/01/09 11:25:53;;;;;;;;;;;7.00;99.90;;;;;;4985449;28;212808;-70
2023/01/09 11:28:19;;;;;;;;;;;6.90;99.90;;;;;;5021621;28;19925;-69
2023/01/09 11:30:55;;;;;;;;;;;7.00;99.90;;;;;;4976602;28;207357;-69
2023/01/09 11:33:34;;;;;;;;;;;7.00;99.90;;;;;;5035249;28;19925;-70
2023/01/09 11:36:09;;;;;;;;;;;7.10;99.90;;;;;;4976874;28;207291;-69
2023/01/09 11:38:49;;;;;;;;;;;7.10;99.90;;;;;;5027066;28;19921;-69
2023/01/09 11:41:17;;;;;;;;;;;7.20;99.90;;;;;;4973605;28;125963;-68
2023/01/09 11:43:44;;;;;;;;;;;7.30;99.90;;;;;;5035768;28;19929;-70
2023/01/09 11:46:28;;;;;;;;;;;7.30;99.90;;;;;;4979419;28;211621;-70
2023/01/09 11:48:57;;;;;;;;;;;7.30;99.90;;;;;;5016411;28;207701;-69
2023/01/09 11:51:30;;;;;;;;;;;7.40;99.90;;;;;;4972607;28;90549;-69
2023/01/09 11:53:59;;;;;;;;;;;7.40;99.90;;;;;;5000205;28;207562;-70
2023/01/09 11:56:25;;;;;;;;;;;7.40;99.90;;;;;;4973340;28;19925;-68
2023/01/09 11:58:51;;;;;;;;;;;7.50;99.90;;;;;;5030037;28;207020;-68
2023/01/09 12:01:20;;;;;;;;;;;7.50;99.90;;;;;;4991430;28;141665;-68
2023/01/09 12:04:05;;;;;;;;;;;7.50;99.90;;;;;;5042298;28;20315;-69
2023/01/09 12:06:49;;;;;;;;;;;7.50;99.90;;;;;;4955836;28;145806;-69
2023/01/09 12:09:21;;;;;;;;;;;7.60;99.90;;;;;;4981905;28;208108;-68
2023/01/09 12:11:47;;;;;;;;;;;7.60;99.90;;;;;;5011597;28;19936;-68
2023/01/09 12:14:13;;;;;;;;;;;7.60;99.90;;;;;;4981783;28;207311;-68
2023/01/09 12:17:08;;;;;;;;;;;7.50;99.90;;;;;;5025546;28;19975;-69
2023/01/09 12:19:57;;;;;;;;;;;7.50;99.90;;;;;;4972944;28;205112;-69
2023/01/09 12:22:30;;;;;;;;;;;7.40;99.90;;;;;;5027797;28;19921;-70
2023/01/09 12:25:11;;;;;;;;;;;7.40;99.90;;;;;;4984235;28;207463;-70
2023/01/09 12:27:53;;;;;;;;;;;7.40;99.90;;;;;;5016047;28;20432;-69
2023/01/09 12:30:22;;;;;;;;;;;7.40;99.90;;;;;;4990227;28;207636;-68
2023/01/09 12:33:07;;;;;;;;;;;7.50;99.90;;;;;;5043488;28;19929;-69
2023/01/09 12:35:38;;;;;;;;;;;7.50;99.90;;;;;;4971777;28;240594;-69
2023/01/09 12:38:10;;;;;;;;;;;7.50;99.90;;;;;;5026703;28;19921;-70
2023/01/09 12:40:54;;;;;;;;;;;7.50;99.90;;;;;;4964849;28;205777;-70
2023/01/09 12:43:20;;;;;;;;;;;7.50;99.90;;;;;;5040098;28;19921;-69
2023/01/09 12:45:46;;;;;;;;;;;7.50;99.90;;;;;;4984141;28;207384;-69
2023/01/09 12:48:12;;;;;;;;;;;7.40;99.90;;;;;;5044999;28;19956;-69
2023/01/09 12:50:58;;;;;;;;;;;7.40;99.90;;;;;;4956099;28;216548;-70
2023/01/09 12:53:25;;;;;;;;;;;7.40;99.90;;;;;;5036165;28;19925;-69
2023/01/09 12:55:56;;;;;;;;;;;7.50;99.90;;;;;;4987155;28;216738;-69
2023/01/09 12:58:35;;;;;;;;;;;7.60;99.90;;;;;;5042237;28;19929;-70
2023/01/09 13:01:02;;;;;;;;;;;7.50;99.90;;;;;;4950544;28;209899;-68
2023/01/09 13:03:49;;;;;;;;;;;7.60;99.90;;;;;;5026698;28;19925;-69
2023/01/09 13:06:17;;;;;;;;;;;7.60;99.90;;;;;;4945868;28;207363;-68
2023/01/09 13:08:49;;;;;;;;;;;7.50;99.90;;;;;;5038293;28;19928;-69
2023/01/09 13:11:30;;;;;;;;;;;7.50;99.90;;;;;;4961333;28;205266;-69
2023/01/09 13:13:59;;;;;;;;;;;7.50;99.90;;;;;;5007158;28;202025;-69
2023/01/09 13:16:34;;;;;;;;;;;7.50;99.90;;;;;;4975045;28;207180;-69
2023/01/09 13:19:00;;;;;;;;;;;7.50;99.90;;;;;;4996204;28;207881;-69
2023/01/09 13:21:26;;;;;;;;;;;7.50;99.90;;;;;;5014680;28;19925;-69
2023/01/09 13:23:58;;;;;;;;;;;7.50;99.90;;;;;;5033714;28;208077;-69
2023/01/09 13:26:28;;;;;;;;;;;7.50;99.90;;;;;;4940631;28;209789;-68
2023/01/09 13:28:59;;;;;;;;;;;7.50;99.90;;;;;;5029150;28;206618;-69
2023/01/09 13:31:49;;;;;;;;;;;7.50;99.90;;;;;;4969577;28;19931;-68
2023/01/09 13:34:18;;;;;;;;;;;7.50;99.90;;;;;;4995323;28;208207;-70
2023/01/09 13:36:45;;;;;;;;;;;7.50;99.90;;;;;;5031105;28;19925;-68
2023/01/09 13:39:22;;;;;;;;;;;7.60;99.90;;;;;;4988875;28;207173;-68
2023/01/09 13:44:47;;;;;;;;;;;7.70;99.90;;;;;;4979650;28;207757;-70
2023/01/09 13:47:23;;;;;;;;;;;8.00;99.90;;;;;;5030867;28;19932;-69
2023/01/09 13:49:50;;;;;;;;;;;8.70;99.90;;;;;;4964792;28;210146;-70
2023/01/09 13:52:28;;;;;;;;;;;8.70;99.90;;;;;;5026276;28;19928;-70
2023/01/09 13:54:57;;;;;;;;;;;8.50;99.90;;;;;;4949387;28;209762;-70
2023/01/09 13:57:27;;;;;;;;;;;8.20;99.90;;;;;;4995555;28;19925;-69
2023/01/09 13:59:57;;;;;;;;;;;8.10;99.90;;;;;;4970984;28;209634;-69
2023/01/09 14:02:35;;;;;;;;;;;8.10;99.90;;;;;;5036410;28;19944;-68
2023/01/09 14:05:02;;;;;;;;;;;8.00;99.90;;;;;;4970554;28;215878;-68
2023/01/09 14:07:29;;;;;;;;;;;8.00;99.90;;;;;;5030363;28;19921;-70
2023/01/09 14:09:58;;;;;;;;;;;8.00;99.90;;;;;;4995690;28;210360;-68
2023/01/09 14:12:25;;;;;;;;;;;8.00;99.90;;;;;;5029767;28;20386;-69
2023/01/09 14:14:52;;;;;;;;;;;7.90;99.90;;;;;;4971473;28;229681;-69
2023/01/09 14:17:28;;;;;;;;;;;8.00;99.90;;;;;;5028768;28;19929;-68
2023/01/09 14:19:56;;;;;;;;;;;7.90;99.90;;;;;;4959110;28;243603;-69
2023/01/09 14:22:27;;;;;;;;;;;7.90;99.90;;;;;;5023771;28;19928;-70
2023/01/09 14:24:55;;;;;;;;;;;7.90;99.90;;;;;;4984252;28;208065;-70
2023/01/09 14:27:40;;;;;;;;;;;7.90;99.90;;;;;;5033041;28;20695;-69
2023/01/09 14:30:15;;;;;;;;;;;7.90;99.90;;;;;;4973788;28;207311;-70
2023/01/09 14:32:42;;;;;;;;;;;7.90;99.90;;;;;;5030657;28;20382;-70
2023/01/09 14:35:21;;;;;;;;;;;7.90;99.90;;;;;;4977573;28;209095;-71
2023/01/09 14:37:54;;;;;;;;;;;7.90;99.90;;;;;;5023711;28;20428;-69
2023/01/09 14:40:21;;;;;;;;;;;8.00;99.90;;;;;;4966516;28;241057;-70
2023/01/09 14:42:50;;;;;;;;;;;8.00;99.90;;;;;;5019364;28;19936;-68
2023/01/09 14:45:19;;;;;;;;;;;8.00;99.90;;;;;;4972890;28;216348;-70
2023/01/09 14:47:48;;;;;;;;;;;7.90;99.90;;;;;;5014178;28;19932;-68